Time;durP1;ratioP1;P1;durP2;ratioP2;P2;SDS_P1;SDS_P2;PMS_P1;PMS_P2;Temp;Humidity;BMP_temperature;BMP_pressure;BME280_temperature;BME280_humidity;BME280_pressure;Samples;Min_cycle;Max_cycle;Signal;HPM_P1;HPM_P2
2022/10/25 00:01:27;;;;;;;;;;;;;;;13.74;52.50;100440.41;4870915;28;127935;-67
2022/10/25 00:03:53;;;;;;;;;;;;;;;13.72;52.25;100448.03;4866574;28;126018;-64
2022/10/25 00:06:19;;;;;;;;;;;;;;;13.71;52.31;100451.00;4877015;28;121077;-66
2022/10/25 00:08:45;;;;;;;;;;;;;;;13.71;52.53;100459.94;4867371;28;98018;-64
2022/10/25 00:11:19;;;;;;;;;;;;;;;13.69;52.50;100456.72;4868132;28;112210;-64
2022/10/25 00:13:46;;;;;;;;;;;;;;;13.68;52.28;100457.03;4868298;28;106165;-64
2022/10/25 00:16:14;;;;;;;;;;;;;;;13.68;52.51;100457.03;4877971;28;126280;-67
2022/10/25 00:18:40;;;;;;;;;;;;;;;13.69;52.65;100455.91;4876833;28;98075;-67
2022/10/25 00:21:06;;;;;;;;;;;;;;;13.71;52.62;100459.13;4872899;28;126462;-64
2022/10/25 00:23:32;;;;;;;;;;;;;;;13.72;52.48;100452.66;4871221;28;127293;-64
2022/10/25 00:26:04;;;;;;;;;;;;;;;13.73;52.32;100449.63;4865779;28;127447;-64
2022/10/25 00:28:30;;;;;;;;;;;;;;;13.74;52.35;100453.94;4868849;28;98292;-63
2022/10/25 00:31:00;;;;;;;;;;;;;;;13.76;52.27;100456.38;4868493;28;128367;-66
2022/10/25 00:33:31;;;;;;;;;;;;;;;13.79;52.63;100460.41;4870547;28;100336;-66
2022/10/25 00:36:06;;;;;;;;;;;;;;;13.83;52.58;100466.84;4868191;28;98302;-67
2022/10/25 00:38:32;;;;;;;;;;;;;;;13.86;52.57;100456.25;4875054;28;111443;-64
2022/10/25 00:40:58;;;;;;;;;;;;;;;13.89;52.34;100455.69;4877375;28;98962;-67
2022/10/25 00:43:30;;;;;;;;;;;;;;;13.92;52.25;100457.81;4866824;28;128991;-66
2022/10/25 00:45:56;;;;;;;;;;;;;;;13.95;52.22;100451.00;4868851;28;103516;-63
2022/10/25 00:48:22;;;;;;;;;;;;;;;13.98;52.64;100461.25;4867862;28;105823;-66
2022/10/25 00:50:49;;;;;;;;;;;;;;;14.02;52.33;100458.78;4852663;28;128691;-66
2022/10/25 00:53:31;;;;;;;;;;;;;;;14.04;52.21;100459.31;4874083;28;98314;-64
2022/10/25 00:56:21;;;;;;;;;;;;;;;14.08;52.65;100460.34;4877230;28;98324;-64
2022/10/25 00:58:50;;;;;;;;;;;;;;;14.12;52.62;100450.53;4863053;28;117955;-66
2022/10/25 01:01:15;;;;;;;;;;;;;;;14.13;52.57;100450.22;4877155;28;120647;-67
2022/10/25 01:03:42;;;;;;;;;;;;;;;14.15;52.26;100455.38;4877022;28;106806;-66
2022/10/25 01:06:16;;;;;;;;;;;;;;;14.17;52.43;100450.44;4870716;28;98268;-64
2022/10/25 01:08:42;;;;;;;;;;;;;;;14.20;52.17;100456.09;4875543;28;109542;-64
2022/10/25 01:11:08;;;;;;;;;;;;;;;14.23;52.36;100454.72;4866582;28;129475;-64
2022/10/25 01:13:34;;;;;;;;;;;;;;;14.24;52.22;100451.72;4871792;28;120199;-66
2022/10/25 01:16:07;;;;;;;;;;;;;;;14.25;52.56;100453.31;4872309;28;121288;-64
2022/10/25 01:18:55;;;;;;;;;;;;;;;14.28;52.19;100445.72;4878787;28;110951;-66
2022/10/25 01:21:35;;;;;;;;;;;;;;;14.31;52.16;100442.41;4853466;28;98750;-66
2022/10/25 01:24:11;;;;;;;;;;;;;;;14.33;52.41;100438.28;4854316;28;114717;-64
2022/10/25 01:26:49;;;;;;;;;;;;;;;14.32;52.17;100436.69;4869701;28;120560;-64
2022/10/25 01:29:40;;;;;;;;;;;;;;;14.36;52.35;100439.63;4875773;28;98036;-64
2022/10/25 01:32:14;;;;;;;;;;;;;;;14.36;52.18;100440.44;4865858;28;98481;-67
2022/10/25 01:34:43;;;;;;;;;;;;;;;14.38;52.33;100438.25;4870711;28;117544;-66
2022/10/25 01:37:11;;;;;;;;;;;;;;;14.38;52.15;100440.13;4875250;28;125278;-66
2022/10/25 01:39:47;;;;;;;;;;;;;;;14.39;52.18;100442.56;4876348;28;98065;-64
2022/10/25 01:42:21;;;;;;;;;;;;;;;14.40;52.52;100443.38;4866549;28;126182;-64
2022/10/25 01:45:03;;;;;;;;;;;;;;;14.40;52.29;100448.78;4861609;28;123211;-67
2022/10/25 01:47:35;;;;;;;;;;;;;;;14.41;52.42;100453.91;4868098;28;127668;-64
2022/10/25 01:50:25;;;;;;;;;;;;;;;14.41;52.31;100448.47;4862496;28;98082;-64
2022/10/25 01:52:51;;;;;;;;;;;;;;;14.42;52.56;100455.53;4864657;28;120756;-64
2022/10/25 01:55:17;;;;;;;;;;;;;;;14.41;52.40;100445.78;4874928;28;126505;-64
2022/10/25 01:58:04;;;;;;;;;;;;;;;14.41;52.32;100445.78;4870033;28;127233;-64
2022/10/25 02:00:30;;;;;;;;;;;;;;;14.42;52.56;100450.13;4874005;28;97918;-64
2022/10/25 02:03:08;;;;;;;;;;;;;;;14.42;52.20;100443.88;4860445;28;125723;-66
2022/10/25 02:05:46;;;;;;;;;;;;;;;14.44;52.59;100445.19;4862997;28;122069;-64
2022/10/25 02:08:25;;;;;;;;;;;;;;;14.46;52.39;100450.31;4864052;28;104490;-64
2022/10/25 02:11:15;;;;;;;;;;;;;;;14.46;52.57;100447.59;4875517;28;114519;-66
2022/10/25 02:14:10;;;;;;;;;;;;;;;14.47;52.63;100443.81;4870706;28;123441;-64
2022/10/25 02:17:03;;;;;;;;;;;;;;;14.49;52.31;100447.06;4878087;28;98882;-64
2022/10/25 02:19:34;;;;;;;;;;;;;;;14.51;52.41;100450.28;4872784;28;98035;-66
2022/10/25 02:22:00;;;;;;;;;;;;;;;14.52;52.59;100453.81;4878988;28;98136;-64
2022/10/25 02:24:26;;;;;;;;;;;;;;;14.54;52.32;100452.41;4867352;28;100686;-64
2022/10/25 02:26:52;;;;;;;;;;;;;;;14.56;52.21;100452.13;4867931;28;125870;-64
2022/10/25 02:29:18;;;;;;;;;;;;;;;14.57;52.23;100457.22;4851624;28;126512;-66
2022/10/25 02:31:44;;;;;;;;;;;;;;;14.58;52.31;100458.03;4872760;28;98408;-66
2022/10/25 02:34:10;;;;;;;;;;;;;;;14.58;52.79;100452.63;4872825;28;108305;-64
2022/10/25 02:36:36;;;;;;;;;;;;;;;14.60;52.43;100461.28;4876564;28;98973;-67
2022/10/25 02:39:02;;;;;;;;;;;;;;;14.60;52.30;100450.44;4875494;28;127574;-64
2022/10/25 02:41:28;;;;;;;;;;;;;;;14.61;52.42;100463.69;4881194;28;110570;-64
2022/10/25 02:43:54;;;;;;;;;;;;;;;14.62;52.28;100461.78;4875966;28;128122;-64
2022/10/25 02:46:21;;;;;;;;;;;;;;;14.62;52.27;100464.47;4869471;28;128350;-67
2022/10/25 02:48:47;;;;;;;;;;;;;;;14.62;52.54;100461.78;4866247;28;125838;-68
2022/10/25 02:51:13;;;;;;;;;;;;;;;14.61;52.19;100469.09;4872214;28;98121;-66
2022/10/25 02:53:39;;;;;;;;;;;;;;;14.62;52.69;100461.78;4873447;28;98461;-66
2022/10/25 02:56:11;;;;;;;;;;;;;;;14.62;52.54;100468.03;4874307;28;127555;-65
2022/10/25 02:58:38;;;;;;;;;;;;;;;14.64;52.62;100467.72;4871845;28;126136;-64
2022/10/25 03:01:04;;;;;;;;;;;;;;;14.63;52.56;100466.91;4874785;28;115780;-64
2022/10/25 03:03:30;;;;;;;;;;;;;;;14.63;52.41;100466.91;4881112;28;104210;-64
2022/10/25 03:05:56;;;;;;;;;;;;;;;14.63;52.67;100468.84;4874567;28;100217;-66
2022/10/25 03:08:22;;;;;;;;;;;;;;;14.62;52.38;100475.34;4866579;28;118336;-66
2022/10/25 03:10:48;;;;;;;;;;;;;;;14.61;52.39;100469.09;4879547;28;117003;-64
2022/10/25 03:13:14;;;;;;;;;;;;;;;14.62;52.38;100475.34;4870650;28;128866;-66
2022/10/25 03:15:41;;;;;;;;;;;;;;;14.61;52.67;100482.66;4875304;28;128162;-64
2022/10/25 03:18:07;;;;;;;;;;;;;;;14.60;52.89;100481.06;4875482;28;112502;-64
2022/10/25 03:20:33;;;;;;;;;;;;;;;14.58;52.37;100477.03;4870628;28;117580;-64
2022/10/25 03:22:59;;;;;;;;;;;;;;;14.57;52.69;100481.66;4866918;28;126836;-67
2022/10/25 03:25:25;;;;;;;;;;;;;;;14.55;52.77;100483.06;4877927;28;127700;-64
2022/10/25 03:27:50;;;;;;;;;;;;;;;14.52;52.83;100479.00;4869066;28;127705;-64
2022/10/25 03:30:16;;;;;;;;;;;;;;;14.50;52.70;100483.91;4868744;28;116618;-64
2022/10/25 03:32:42;;;;;;;;;;;;;;;14.48;52.78;100481.47;4867484;28;128007;-67
2022/10/25 03:35:08;;;;;;;;;;;;;;;14.47;52.47;100484.50;4871997;28;128087;-64
2022/10/25 03:37:34;;;;;;;;;;;;;;;14.45;52.50;100487.47;4875675;28;127357;-67
2022/10/25 03:40:00;;;;;;;;;;;;;;;14.44;52.60;100480.44;4874714;28;116535;-64
2022/10/25 03:42:26;;;;;;;;;;;;;;;14.43;52.53;100486.97;4879398;28;128050;-64
2022/10/25 03:44:52;;;;;;;;;;;;;;;14.41;52.83;100486.44;4869176;28;128167;-67
2022/10/25 03:47:18;;;;;;;;;;;;;;;14.40;52.66;100490.28;4868459;28;124513;-64
2022/10/25 03:49:44;;;;;;;;;;;;;;;14.39;52.59;100494.09;4868076;28;117774;-64
2022/10/25 03:52:10;;;;;;;;;;;;;;;14.38;52.76;100499.78;4876939;28;111235;-66
2022/10/25 03:54:36;;;;;;;;;;;;;;;14.36;52.49;100500.09;4869201;28;127445;-64
2022/10/25 03:57:02;;;;;;;;;;;;;;;14.36;52.65;100502.00;4861994;28;127902;-64
2022/10/25 03:59:28;;;;;;;;;;;;;;;14.36;52.62;100504.69;4879082;28;98128;-66
2022/10/25 04:01:53;;;;;;;;;;;;;;;14.35;52.42;100514.75;4874129;28;119034;-64
2022/10/25 04:04:19;;;;;;;;;;;;;;;14.34;52.95;100507.69;4867693;28;126494;-66
2022/10/25 04:06:45;;;;;;;;;;;;;;;14.33;52.75;100511.50;4866281;28;126612;-64
2022/10/25 04:09:11;;;;;;;;;;;;;;;14.33;52.57;100502.56;4865849;28;117957;-66
2022/10/25 04:11:37;;;;;;;;;;;;;;;14.32;52.73;100509.91;4868398;28;117630;-67
2022/10/25 04:14:03;;;;;;;;;;;;;;;14.31;52.93;100502.88;4871938;28;125947;-64
2022/10/25 04:16:29;;;;;;;;;;;;;;;14.30;52.74;100509.38;4868102;28;127574;-64
2022/10/25 04:18:56;;;;;;;;;;;;;;;14.30;52.77;100506.66;4869524;28;117380;-64
2022/10/25 04:21:22;;;;;;;;;;;;;;;14.29;52.75;100513.19;4878420;28;98858;-64
2022/10/25 04:23:48;;;;;;;;;;;;;;;14.29;52.84;100512.38;4874604;28;126513;-64
2022/10/25 04:26:17;;;;;;;;;;;;;;;14.28;52.99;100514.28;4869631;28;125431;-67
2022/10/25 04:28:43;;;;;;;;;;;;;;;14.25;52.57;100517.56;4866475;28;97869;-67
2022/10/25 04:31:09;;;;;;;;;;;;;;;14.24;52.72;100513.25;4870241;28;122203;-66
2022/10/25 04:33:35;;;;;;;;;;;;;;;14.23;52.61;100517.06;4870774;28;100783;-67
2022/10/25 04:36:01;;;;;;;;;;;;;;;14.23;52.74;100517.06;4871581;28;128136;-64
2022/10/25 04:38:27;;;;;;;;;;;;;;;14.23;52.97;100520.59;4877372;28;115476;-66
2022/10/25 04:40:56;;;;;;;;;;;;;;;14.24;52.90;100521.38;4873305;28;128329;-67
2022/10/25 04:43:22;;;;;;;;;;;;;;;14.22;52.82;100523.56;4875840;28;98786;-67
2022/10/25 04:45:48;;;;;;;;;;;;;;;14.21;52.51;100521.97;4871944;28;98324;-67
2022/10/25 04:48:14;;;;;;;;;;;;;;;14.20;52.64;100523.06;4865403;28;113601;-67
2022/10/25 04:50:40;;;;;;;;;;;;;;;14.18;52.61;100525.25;4865976;28;128651;-67
2022/10/25 04:53:06;;;;;;;;;;;;;;;14.19;52.75;100530.41;4868577;28;128343;-64
2022/10/25 04:55:32;;;;;;;;;;;;;;;14.19;52.82;100538.53;4870860;28;128002;-64
2022/10/25 04:57:58;;;;;;;;;;;;;;;14.17;53.01;100538.00;4873051;28;97791;-64
2022/10/25 05:00:24;;;;;;;;;;;;;;;14.17;52.59;100540.72;4869190;28;113598;-64
2022/10/25 05:02:51;;;;;;;;;;;;;;;14.14;52.80;100535.06;4870716;28;98311;-64
2022/10/25 05:05:17;;;;;;;;;;;;;;;14.16;52.91;100539.09;4879772;28;100691;-64
2022/10/25 05:07:43;;;;;;;;;;;;;;;14.14;52.84;100537.75;4865782;28;115679;-64
2022/10/25 05:10:09;;;;;;;;;;;;;;;14.14;53.01;100545.91;4875139;28;127356;-64
2022/10/25 05:12:35;;;;;;;;;;;;;;;14.11;53.00;100543.75;4876148;28;126643;-64
2022/10/25 05:15:01;;;;;;;;;;;;;;;14.09;52.68;100535.13;4873226;28;128368;-64
2022/10/25 05:17:27;;;;;;;;;;;;;;;14.07;53.00;100538.13;4873205;28;116645;-67
2022/10/25 05:19:53;;;;;;;;;;;;;;;14.07;53.07;100538.13;4861324;28;117782;-64
2022/10/25 05:22:19;;;;;;;;;;;;;;;14.05;53.09;100534.91;4876968;28;126402;-67
2022/10/25 05:24:44;;;;;;;;;;;;;;;14.05;52.81;100536.81;4867611;28;127408;-66
2022/10/25 05:27:10;;;;;;;;;;;;;;;14.02;53.07;100532.75;4870802;28;117328;-66
2022/10/25 05:29:36;;;;;;;;;;;;;;;14.00;52.72;100543.91;4865729;28;128228;-67
2022/10/25 05:32:02;;;;;;;;;;;;;;;13.99;52.75;100542.28;4872239;28;128733;-66
2022/10/25 05:34:28;;;;;;;;;;;;;;;13.99;53.00;100557.75;4874141;28;126791;-67
2022/10/25 05:36:54;;;;;;;;;;;;;;;13.99;52.70;100558.53;4873507;28;119300;-67
2022/10/25 05:39:20;;;;;;;;;;;;;;;13.98;52.70;100558.81;4877330;28;98555;-64
2022/10/25 05:41:46;;;;;;;;;;;;;;;13.98;52.66;100570.47;4872436;28;98640;-64
2022/10/25 05:44:13;;;;;;;;;;;;;;;13.96;53.11;100564.53;4867357;28;98080;-64
2022/10/25 05:46:39;;;;;;;;;;;;;;;13.96;52.87;100558.31;4865210;28;98286;-64
2022/10/25 05:49:05;;;;;;;;;;;;;;;13.98;52.71;100569.66;4867722;28;128173;-64
2022/10/25 05:51:31;;;;;;;;;;;;;;;13.98;52.71;100575.06;4872577;28;128266;-64
2022/10/25 05:53:59;;;;;;;;;;;;;;;13.97;52.77;100571.56;4869707;28;127335;-64
2022/10/25 05:56:26;;;;;;;;;;;;;;;13.99;52.90;100580.22;4873487;28;98228;-64
2022/10/25 05:58:52;;;;;;;;;;;;;;;14.01;53.01;100579.94;4874689;28;99396;-67
2022/10/25 06:01:20;;;;;;;;;;;;;;;14.02;52.59;100586.16;4877424;28;109754;-67
2022/10/25 06:03:50;;;;;;;;;;;;;;;14.08;52.48;100585.00;4875973;28;98073;-66
2022/10/25 06:06:16;;;;;;;;;;;;;;;14.10;52.68;100580.09;4870379;28;109585;-63
2022/10/25 06:08:42;;;;;;;;;;;;;;;14.13;52.69;100588.47;4864615;28;127941;-65
2022/10/25 06:11:10;;;;;;;;;;;;;;;14.16;52.85;100587.91;4870032;28;111347;-67
2022/10/25 06:13:36;;;;;;;;;;;;;;;14.22;52.76;100605.69;4873932;28;97881;-64
2022/10/25 06:16:03;;;;;;;;;;;;;;;14.26;52.56;100597.81;4871438;28;97763;-66
2022/10/25 06:18:29;;;;;;;;;;;;;;;14.30;52.31;100601.56;4871257;28;99020;-65
2022/10/25 06:20:55;;;;;;;;;;;;;;;14.33;52.58;100594.75;4873749;28;127804;-64
2022/10/25 06:23:21;;;;;;;;;;;;;;;14.35;52.43;100596.09;4870465;28;127022;-64
2022/10/25 06:25:47;;;;;;;;;;;;;;;14.38;52.32;100600.94;4869744;28;97979;-64
2022/10/25 06:28:13;;;;;;;;;;;;;;;14.42;52.52;100604.69;4867993;28;127951;-65
2022/10/25 06:30:38;;;;;;;;;;;;;;;14.51;52.38;100613.03;4865120;28;129101;-66
2022/10/25 06:33:04;;;;;;;;;;;;;;;14.61;52.15;100609.34;4870833;28;126626;-66
2022/10/25 06:35:32;;;;;;;;;;;;;;;14.74;52.06;100619.53;4870307;28;117490;-64
2022/10/25 06:37:59;;;;;;;;;;;;;;;14.80;51.99;100623.75;4870850;28;98296;-64
2022/10/25 06:40:25;;;;;;;;;;;;;;;14.88;52.07;100627.72;4868322;28;98263;-64
2022/10/25 06:42:55;;;;;;;;;;;;;;;14.95;52.04;100628.19;4872883;28;113476;-64
2022/10/25 06:45:22;;;;;;;;;;;;;;;14.97;51.83;100615.94;4869217;28;97759;-64
2022/10/25 06:47:47;;;;;;;;;;;;;;;14.99;52.02;100623.78;4870680;28;98696;-64
2022/10/25 06:50:13;;;;;;;;;;;;;;;15.03;51.88;100624.81;4874985;28;127258;-64
2022/10/25 06:52:39;;;;;;;;;;;;;;;15.08;51.91;100629.34;4866783;28;127507;-66
2022/10/25 06:55:05;;;;;;;;;;;;;;;15.13;51.80;100630.13;4862394;28;101842;-66
2022/10/25 06:57:31;;;;;;;;;;;;;;;15.23;52.01;100626.44;4875658;28;128176;-64
2022/10/25 06:59:57;;;;;;;;;;;;;;;15.31;51.83;100633.09;4878284;28;126872;-64
2022/10/25 07:02:23;;;;;;;;;;;;;;;15.37;51.66;100635.47;4872646;28;98318;-66
2022/10/25 07:04:49;;;;;;;;;;;;;;;15.46;51.72;100636.38;4877935;28;115891;-64
2022/10/25 07:07:15;;;;;;;;;;;;;;;15.59;51.31;100639.44;4860796;28;126306;-64
2022/10/25 07:09:41;;;;;;;;;;;;;;;15.71;51.45;100643.34;4873881;28;98534;-67
2022/10/25 07:12:07;;;;;;;;;;;;;;;15.81;51.45;100644.28;4877812;28;127121;-66
2022/10/25 07:14:33;;;;;;;;;;;;;;;15.92;51.32;100643.03;4868281;28;118547;-67
2022/10/25 07:16:59;;;;;;;;;;;;;;;16.00;51.27;100649.69;4874015;28;129186;-64
2022/10/25 07:19:24;;;;;;;;;;;;;;;16.08;51.21;100643.56;4875078;28;128776;-64
2022/10/25 07:21:50;;;;;;;;;;;;;;;16.18;51.13;100646.88;4872047;28;112854;-64
2022/10/25 07:24:16;;;;;;;;;;;;;;;16.31;51.23;100648.03;4869927;28;118369;-67
2022/10/25 07:26:42;;;;;;;;;;;;;;;16.34;51.18;100650.13;4875433;28;127913;-64
2022/10/25 07:29:08;;;;;;;;;;;;;;;16.33;51.27;100651.22;4867755;28;111811;-64
2022/10/25 07:31:43;;;;;;;;;;;;;;;16.29;51.29;100650.22;4871810;28;128055;-67
2022/10/25 07:34:10;;;;;;;;;;;;;;;16.25;51.38;100659.28;4871480;28;97727;-67
2022/10/25 07:36:36;;;;;;;;;;;;;;;16.20;51.41;100654.75;4872474;28;122547;-64
2022/10/25 07:39:01;;;;;;;;;;;;;;;16.18;51.64;100651.50;4877759;28;115816;-66
2022/10/25 07:41:27;;;;;;;;;;;;;;;16.24;51.46;100657.69;4877738;28;124603;-67
2022/10/25 07:43:54;;;;;;;;;;;;;;;16.37;51.41;100659.59;4855329;28;115687;-64
2022/10/25 07:46:20;;;;;;;;;;;;;;;16.54;51.12;100656.25;4870921;28;98521;-64
2022/10/25 07:48:46;;;;;;;;;;;;;;;16.90;50.61;100659.13;4873385;28;122562;-67
2022/10/25 07:51:13;;;;;;;;;;;;;;;17.00;50.50;100664.31;4870248;28;106447;-64
2022/10/25 07:53:39;;;;;;;;;;;;;;;17.28;50.13;100666.97;4872039;28;117530;-67
2022/10/25 07:56:06;;;;;;;;;;;;;;;17.49;49.97;100664.59;4873827;28;99168;-64
2022/10/25 07:58:32;;;;;;;;;;;;;;;17.43;50.08;100656.53;4867940;28;98892;-67
2022/10/25 08:01:02;;;;;;;;;;;;;;;17.50;50.21;100664.28;4874400;28;106941;-67
2022/10/25 08:03:27;;;;;;;;;;;;;;;17.48;50.26;100666.50;4875977;28;98189;-64
2022/10/25 08:05:53;;;;;;;;;;;;;;;17.39;50.69;100663.72;4875074;28;120706;-66
2022/10/25 08:08:22;;;;;;;;;;;;;;;17.39;50.60;100669.16;4869640;28;99476;-67
2022/10/25 08:10:47;;;;;;;;;;;;;;;17.49;50.57;100670.88;4869566;28;98581;-67
2022/10/25 08:13:13;;;;;;;;;;;;;;;17.75;50.25;100668.34;4874519;28;116921;-67
2022/10/25 08:15:39;;;;;;;;;;;;;;;18.63;48.72;100664.94;4871600;28;107733;-67
2022/10/25 08:18:06;;;;;;;;;;;;;;;18.28;49.58;100667.53;4872437;28;98518;-67
2022/10/25 08:20:32;;;;;;;;;;;;;;;18.23;50.01;100673.13;4872024;28;98207;-66
2022/10/25 08:22:58;;;;;;;;;;;;;;;18.48;49.57;100670.84;4874263;28;117449;-67
2022/10/25 08:25:25;;;;;;;;;;;;;;;18.24;50.17;100672.00;4878115;28;124166;-67
2022/10/25 08:27:51;;;;;;;;;;;;;;;18.04;50.39;100675.28;4869873;28;98251;-64
2022/10/25 08:30:17;;;;;;;;;;;;;;;17.83;50.80;100680.44;4869254;28;114791;-67
2022/10/25 08:32:42;;;;;;;;;;;;;;;17.64;50.97;100681.41;4866673;28;115988;-64
2022/10/25 08:35:08;;;;;;;;;;;;;;;17.50;51.23;100686.09;4873435;28;128751;-64
2022/10/25 08:37:34;;;;;;;;;;;;;;;17.35;51.18;100679.06;4861494;28;127201;-67
2022/10/25 08:40:00;;;;;;;;;;;;;;;17.21;51.55;100683.75;4875392;28;126467;-65
2022/10/25 08:42:56;;;;;;;;;;;;;;;17.17;51.39;100690.91;4869405;28;97829;-65
2022/10/25 08:45:40;;;;;;;;;;;;;;;17.22;51.26;100687.28;4879946;28;123381;-65
2022/10/25 08:48:11;;;;;;;;;;;;;;;17.31;51.07;100688.97;4874707;28;104181;-66
2022/10/25 08:50:41;;;;;;;;;;;;;;;17.36;50.78;100693.50;4871680;28;124499;-65
2022/10/25 08:53:18;;;;;;;;;;;;;;;17.39;51.00;100682.78;4862702;28;108786;-67
2022/10/25 08:55:44;;;;;;;;;;;;;;;17.45;50.86;100688.94;4876808;28;98015;-65
2022/10/25 08:58:16;;;;;;;;;;;;;;;17.53;50.77;100696.38;4858336;28;110758;-64
2022/10/25 09:00:43;;;;;;;;;;;;;;;17.70;50.55;100697.63;4860952;28;98424;-64
2022/10/25 09:03:14;;;;;;;;;;;;;;;17.85;50.42;100697.28;4870494;28;117416;-65
2022/10/25 09:05:40;;;;;;;;;;;;;;;17.97;50.49;100694.81;4878643;28;98319;-67
2022/10/25 09:08:09;;;;;;;;;;;;;;;17.97;50.26;100683.91;4864852;28;104898;-64
2022/10/25 09:11:08;;;;;;;;;;;;;;;18.22;49.90;100693.34;4874079;28;98322;-64
2022/10/25 09:14:09;;;;;;;;;;;;;;;19.33;48.47;100688.53;4871218;28;97948;-67
2022/10/25 09:16:43;;;;;;;;;;;;;;;20.47;47.35;100686.44;4868781;28;98372;-65
2022/10/25 09:19:35;;;;;;;;;;;;;;;21.31;46.75;100691.00;4876750;28;129060;-67
2022/10/25 09:22:13;;;;;;;;;;;;;;;21.27;47.67;100702.97;4870398;28;98215;-67
2022/10/25 09:24:42;;;;;;;;;;;;;;;21.96;47.25;100702.38;4872138;28;97878;-67
2022/10/25 09:27:35;;;;;;;;;;;;;;;22.98;45.97;100708.16;4866135;28;129014;-67
2022/10/25 09:30:06;;;;;;;;;;;;;;;22.74;46.92;100707.00;4869889;28;115235;-67
2022/10/25 09:32:43;;;;;;;;;;;;;;;22.56;47.71;100711.13;4879098;28;98448;-67
2022/10/25 09:35:17;;;;;;;;;;;;;;;22.89;47.17;100708.25;4871133;28;117419;-65
2022/10/25 09:37:52;;;;;;;;;;;;;;;22.52;47.76;100719.25;4866943;28;128241;-65
2022/10/25 09:40:20;;;;;;;;;;;;;;;21.97;48.50;100723.22;4888687;28;117995;-66
2022/10/25 09:42:54;;;;;;;;;;;;;;;21.57;49.03;100725.66;4864475;28;98415;-67
2022/10/25 09:45:42;;;;;;;;;;;;;;;21.23;49.33;100721.22;4873450;28;102893;-67
2022/10/25 09:48:30;;;;;;;;;;;;;;;21.12;49.33;100718.06;4859914;28;112420;-65
2022/10/25 09:51:06;;;;;;;;;;;;;;;21.12;49.14;100729.03;4867806;28;120734;-67
2022/10/25 09:53:32;;;;;;;;;;;;;;;20.81;49.67;100735.63;4878521;28;98585;-67
2022/10/25 09:55:59;;;;;;;;;;;;;;;20.61;49.74;100732.81;4875383;28;116223;-67
2022/10/25 09:58:27;;;;;;;;;;;;;;;20.32;50.00;100743.38;4862809;28;103352;-67
2022/10/25 10:00:54;;;;;;;;;;;;;;;20.24;50.12;100732.41;4866498;28;98732;-67
2022/10/25 10:03:21;;;;;;;;;;;;;;;20.26;49.85;100735.66;4862090;28;114237;-65
2022/10/25 10:05:56;;;;;;;;;;;;;;;20.24;49.79;100737.88;4874114;28;98372;-67
2022/10/25 10:08:23;;;;;;;;;;;;;;;19.94;50.14;100732.31;4877263;28;99143;-65
2022/10/25 10:10:49;;;;;;;;;;;;;;;19.52;50.74;100731.16;4873173;28;127089;-65
2022/10/25 10:13:49;;;;;;;;;;;;;;;19.26;51.13;100733.91;4854877;28;127882;-65
2022/10/25 10:16:19;;;;;;;;;;;;;;;19.72;50.05;100732.50;4844495;28;101031;-66
2022/10/25 10:18:45;;;;;;;;;;;;;;;20.75;48.23;100731.50;4872465;28;98307;-67
2022/10/25 10:21:12;;;;;;;;;;;;;;;21.02;48.19;100738.41;4878761;28;98437;-65
2022/10/25 10:23:41;;;;;;;;;;;;;;;20.90;48.41;100732.03;4873326;28;98496;-65
2022/10/25 10:26:20;;;;;;;;;;;;;;;20.56;48.97;100733.81;4876206;28;98078;-67
2022/10/25 10:28:47;;;;;;;;;;;;;;;20.06;49.70;100727.00;4865317;28;126331;-65
2022/10/25 10:31:12;;;;;;;;;;;;;;;19.76;50.17;100727.97;4878327;28;109646;-64
2022/10/25 10:33:38;;;;;;;;;;;;;;;19.56;50.44;100732.13;4877282;28;128415;-64
2022/10/25 10:36:26;;;;;;;;;;;;;;;19.35;50.54;100729.25;4882502;28;99661;-64
2022/10/25 10:38:52;;;;;;;;;;;;;;;19.17;50.54;100728.41;4878824;28;98237;-64
2022/10/25 10:41:27;;;;;;;;;;;;;;;19.08;50.72;100722.91;4877811;28;102570;-67
2022/10/25 10:44:14;;;;;;;;;;;;;;;19.17;50.42;100722.13;4869764;28;98167;-67
2022/10/25 10:46:44;;;;;;;;;;;;;;;19.17;50.34;100727.59;4876292;28;117960;-66
2022/10/25 10:49:10;;;;;;;;;;;;;;;19.15;50.34;100719.72;4872068;28;98614;-64
2022/10/25 10:51:39;;;;;;;;;;;;;;;19.12;50.25;100734.00;4870542;28;128975;-64
2022/10/25 10:54:35;;;;;;;;;;;;;;;19.07;50.49;100723.25;4873440;28;97973;-67
2022/10/25 10:57:05;;;;;;;;;;;;;;;19.02;50.37;100728.84;4871032;28;117695;-64
2022/10/25 10:59:44;;;;;;;;;;;;;;;18.96;50.46;100727.38;4879687;28;98202;-66
2022/10/25 11:02:27;;;;;;;;;;;;;;;18.93;50.51;100723.34;4861734;28;115550;-64
2022/10/25 11:04:54;;;;;;;;;;;;;;;18.94;50.53;100724.16;4868024;28;98017;-64
2022/10/25 11:07:25;;;;;;;;;;;;;;;18.94;50.38;100730.41;4866686;28;116132;-64
2022/10/25 11:09:51;;;;;;;;;;;;;;;19.01;50.25;100722.56;4870730;28;98490;-66
2022/10/25 11:12:17;;;;;;;;;;;;;;;19.06;50.31;100727.91;4873443;28;128015;-66
2022/10/25 11:14:43;;;;;;;;;;;;;;;19.19;50.07;100730.81;4873740;28;98409;-67
2022/10/25 11:17:12;;;;;;;;;;;;;;;19.31;49.85;100733.72;4869087;28;118569;-67
2022/10/25 11:19:56;;;;;;;;;;;;;;;19.35;49.81;100730.03;4876896;28;98651;-66
2022/10/25 11:22:47;;;;;;;;;;;;;;;19.37;49.98;100733.28;4876813;28;125328;-64
2022/10/25 11:25:24;;;;;;;;;;;;;;;19.34;50.02;100736.63;4867593;28;98623;-67
2022/10/25 11:28:29;;;;;;;;;;;;;;;19.36;50.00;100739.03;4872751;28;97992;-64
2022/10/25 11:31:05;;;;;;;;;;;;;;;19.43;49.83;100746.78;4875688;28;128184;-67
2022/10/25 11:33:42;;;;;;;;;;;;;;;19.43;49.85;100746.78;4881579;28;97863;-64
2022/10/25 11:36:23;;;;;;;;;;;;;;;19.44;49.83;100745.63;4876921;28;127923;-64
2022/10/25 11:39:14;;;;;;;;;;;;;;;19.47;49.71;100747.75;4881329;28;97977;-64
2022/10/25 11:41:46;;;;;;;;;;;;;;;19.52;49.68;100744.84;4872890;28;98733;-67
2022/10/25 11:44:18;;;;;;;;;;;;;;;19.46;49.96;100749.66;4880162;28;98486;-64
2022/10/25 11:46:59;;;;;;;;;;;;;;;19.22;50.35;100746.59;4871992;28;99311;-64
2022/10/25 11:49:44;;;;;;;;;;;;;;;19.05;50.54;100753.59;4876974;28;97916;-67
2022/10/25 11:52:15;;;;;;;;;;;;;;;18.93;50.39;100750.66;4869737;28;101242;-64
2022/10/25 11:54:53;;;;;;;;;;;;;;;18.93;50.47;100752.59;4889279;28;99898;-66
2022/10/25 11:57:30;;;;;;;;;;;;;;;18.99;50.21;100743.16;4875446;28;98143;-64
2022/10/25 12:00:11;;;;;;;;;;;;;;;19.09;50.18;100754.56;4873082;28;105118;-67
2022/10/25 12:02:44;;;;;;;;;;;;;;;19.22;49.96;100758.31;4875656;28;98893;-64
2022/10/25 12:05:37;;;;;;;;;;;;;;;19.17;50.16;100754.91;4864801;28;124230;-64
2022/10/25 12:08:26;;;;;;;;;;;;;;;19.14;50.21;100756.38;4874002;28;127249;-66
2022/10/25 12:10:59;;;;;;;;;;;;;;;19.35;49.62;100760.09;4872573;28;98750;-66
2022/10/25 12:13:30;;;;;;;;;;;;;;;19.32;49.96;100754.47;4876820;28;126983;-66
2022/10/25 12:15:56;;;;;;;;;;;;;;;19.17;49.96;100755.72;4879435;28;99307;-67
2022/10/25 12:18:56;;;;;;;;;;;;;;;18.98;50.47;100766.94;4860617;28;98124;-67
2022/10/25 12:21:27;;;;;;;;;;;;;;;18.73;50.67;100779.34;4868736;28;116590;-67
2022/10/25 12:23:53;;;;;;;;;;;;;;;18.54;51.00;100768.63;4862174;28;98288;-66
2022/10/25 12:26:28;;;;;;;;;;;;;;;18.38;50.99;100773.66;4868999;28;128798;-67
2022/10/25 12:28:55;;;;;;;;;;;;;;;18.28;51.09;100776.69;4855346;28;98130;-67
2022/10/25 12:31:24;;;;;;;;;;;;;;;18.33;50.95;100778.47;4859446;28;110813;-65
2022/10/25 12:34:03;;;;;;;;;;;;;;;18.24;51.08;100774.88;4878575;28;115589;-67
2022/10/25 12:36:37;;;;;;;;;;;;;;;18.26;50.90;100775.38;4872648;28;98432;-67
2022/10/25 12:39:12;;;;;;;;;;;;;;;18.18;51.06;100776.13;4877179;28;122994;-67
2022/10/25 12:41:39;;;;;;;;;;;;;;;18.26;50.96;100778.91;4848224;28;98074;-67
2022/10/25 12:44:19;;;;;;;;;;;;;;;18.34;50.74;100774.63;4872245;28;98759;-67
2022/10/25 12:46:54;;;;;;;;;;;;;;;18.43;50.54;100778.22;4874155;28;98528;-65